Time;durP1;ratioP1;P1;durP2;ratioP2;P2;SDS_P1;SDS_P2;PMS_P1;PMS_P2;Temp;Humidity;BMP_temperature;BMP_pressure;BME280_temperature;BME280_humidity;BME280_pressure;Samples;Min_cycle;Max_cycle;Signal;HPM_P1;HPM_P2
2022/03/01 00:02:11;;;;;;;19.95;14.18;;;;;;;-144.47;100.00;61586.06;5021893;28;20048;-77
2022/03/01 00:04:36;;;;;;;21.33;13.95;;;;;;;-144.47;100.00;61586.06;5024656;28;20036;-77
2022/03/01 00:07:03;;;;;;;21.20;14.23;;;;;;;-144.47;100.00;61586.06;5022220;28;20038;-76
2022/03/01 00:09:29;;;;;;;17.15;13.18;;;;;;;-144.47;100.00;61586.06;5023267;28;20046;-77
2022/03/01 00:11:54;;;;;;;21.67;15.13;;;;;;;-144.47;100.00;61586.06;5024081;28;20041;-77
2022/03/01 00:14:20;;;;;;;22.00;14.38;;;;;;;-144.47;100.00;61586.06;5021854;28;20394;-76
2022/03/01 00:16:45;;;;;;;18.63;14.38;;;;;;;-144.47;100.00;61586.06;5023694;28;20061;-76
2022/03/01 00:19:11;;;;;;;22.90;14.15;;;;;;;-144.47;100.00;61586.06;5019335;28;20037;-77
2022/03/01 00:21:36;;;;;;;22.98;15.02;;;;;;;-144.47;100.00;61586.06;5019863;28;20033;-76
2022/03/01 00:24:02;;;;;;;22.52;14.68;;;;;;;-144.47;100.00;61586.06;5021789;28;20053;-76
2022/03/01 00:26:28;;;;;;;21.02;14.90;;;;;;;-144.47;100.00;61586.06;5026819;28;20056;-76
2022/03/01 00:28:53;;;;;;;19.38;13.63;;;;;;;-144.47;100.00;61586.06;5034556;28;20026;-76
2022/03/01 00:31:19;;;;;;;19.55;13.98;;;;;;;-144.47;100.00;61586.06;5028829;28;20435;-76
2022/03/01 00:33:45;;;;;;;20.08;13.73;;;;;;;-144.47;100.00;61586.06;5023490;28;20084;-75
2022/03/01 00:36:11;;;;;;;19.33;14.00;;;;;;;-144.47;100.00;61586.06;5020372;28;20030;-78
2022/03/01 00:38:36;;;;;;;18.40;13.57;;;;;;;-144.47;100.00;61586.06;5023578;28;20053;-76
2022/03/01 00:41:02;;;;;;;20.08;13.75;;;;;;;-144.47;100.00;61586.06;5019380;28;20508;-75
2022/03/01 00:43:27;;;;;;;22.02;13.57;;;;;;;-144.47;100.00;61586.06;5023570;28;20030;-77
2022/03/01 00:45:54;;;;;;;24.30;13.45;;;;;;;-144.47;100.00;61586.06;5021334;28;20391;-78
2022/03/01 00:48:20;;;;;;;19.58;13.10;;;;;;;-144.47;100.00;61586.06;5020933;28;20030;-77
2022/03/01 00:50:45;;;;;;;21.35;13.00;;;;;;;-144.47;100.00;61586.06;5023339;28;20029;-78
2022/03/01 00:53:12;;;;;;;18.75;13.68;;;;;;;-144.47;100.00;61586.06;5020415;28;20080;-76
2022/03/01 00:55:39;;;;;;;16.58;12.02;;;;;;;-144.47;100.00;61586.06;5019961;28;20037;-77
2022/03/01 00:58:05;;;;;;;16.92;12.13;;;;;;;-144.47;100.00;61586.06;5022116;28;20037;-76
2022/03/01 01:00:32;;;;;;;15.70;12.15;;;;;;;-144.47;100.00;61586.06;5020741;28;20090;-75
2022/03/01 01:02:57;;;;;;;15.35;12.05;;;;;;;-144.47;100.00;61586.06;5021129;28;20025;-76
2022/03/01 01:05:24;;;;;;;18.88;12.27;;;;;;;-144.47;100.00;61586.06;5020824;28;20028;-76
2022/03/01 01:07:51;;;;;;;15.95;11.57;;;;;;;-144.47;100.00;61586.06;5002201;28;20054;-76
2022/03/01 01:10:17;;;;;;;16.20;11.52;;;;;;;-144.47;100.00;61586.06;5023061;28;20498;-77
2022/03/01 01:12:42;;;;;;;17.25;12.00;;;;;;;-144.47;100.00;61586.06;5023058;28;20108;-77
2022/03/01 01:15:10;;;;;;;15.50;10.90;;;;;;;-144.47;100.00;61586.06;5022441;28;20524;-75
2022/03/01 01:17:36;;;;;;;12.52;10.93;;;;;;;-144.47;100.00;61586.06;5020163;28;20109;-76
2022/03/01 01:20:07;;;;;;;16.77;11.20;;;;;;;-144.47;100.00;61586.06;5021646;28;20109;-77
2022/03/01 01:22:39;;;;;;;16.55;10.48;;;;;;;-144.47;100.00;61586.06;5020255;28;20091;-75
2022/03/01 01:25:07;;;;;;;19.15;10.77;;;;;;;-144.47;100.00;61586.06;5022149;28;20426;-77
2022/03/01 01:27:33;;;;;;;16.02;10.15;;;;;;;-144.47;100.00;61586.06;5020179;28;20052;-75
2022/03/01 01:29:58;;;;;;;14.45;9.70;;;;;;;-144.47;100.00;61586.06;5020897;28;20437;-77
2022/03/01 01:32:24;;;;;;;14.90;10.15;;;;;;;-144.47;100.00;61586.06;5021363;28;20041;-77
2022/03/01 01:34:50;;;;;;;15.77;10.30;;;;;;;-144.47;100.00;61586.06;5019881;28;20100;-76
2022/03/01 01:37:15;;;;;;;14.25;10.23;;;;;;;-144.47;100.00;61586.06;5022789;28;20033;-75
2022/03/01 01:39:41;;;;;;;12.27;9.63;;;;;;;-144.47;100.00;61586.06;5023029;28;20056;-76
2022/03/01 01:42:06;;;;;;;13.73;9.30;;;;;;;-144.47;100.00;61586.06;5020220;28;20034;-75
2022/03/01 01:44:32;;;;;;;17.95;10.23;;;;;;;-144.47;100.00;61586.06;5021518;28;20113;-76
2022/03/01 01:46:58;;;;;;;16.45;9.88;;;;;;;-144.47;100.00;61586.06;5019934;28;20118;-76
2022/03/01 01:49:24;;;;;;;15.50;9.82;;;;;;;-144.47;100.00;61586.06;5020690;28;20029;-76
2022/03/01 01:51:50;;;;;;;14.77;9.30;;;;;;;-144.47;100.00;61586.06;5019919;28;20079;-77
2022/03/01 01:54:16;;;;;;;19.63;9.15;;;;;;;-144.47;100.00;61586.06;5017499;28;20037;-76
2022/03/01 01:56:41;;;;;;;15.15;10.18;;;;;;;-144.47;100.00;61586.06;5020625;28;20124;-76
2022/03/01 01:59:07;;;;;;;15.35;8.60;;;;;;;-144.47;100.00;61586.06;5033834;28;20034;-76
2022/03/01 02:01:32;;;;;;;15.60;8.88;;;;;;;-144.47;100.00;61586.06;5021616;28;20026;-76
2022/03/01 02:04:01;;;;;;;12.13;8.32;;;;;;;-144.47;100.00;61586.06;5021981;28;20112;-75
2022/03/01 02:06:27;;;;;;;20.45;9.23;;;;;;;-144.47;100.00;61586.06;5022955;28;20433;-77
2022/03/01 02:08:53;;;;;;;14.98;8.13;;;;;;;-144.47;100.00;61586.06;5022888;28;20119;-76
2022/03/01 02:11:18;;;;;;;13.95;7.88;;;;;;;-144.47;100.00;61586.06;5027720;28;20029;-76
2022/03/01 02:13:44;;;;;;;13.35;8.30;;;;;;;-144.47;100.00;61586.06;5028925;28;20453;-75
2022/03/01 02:16:10;;;;;;;8.23;7.00;;;;;;;-144.47;100.00;61586.06;5038481;28;20037;-75
2022/03/01 02:18:36;;;;;;;10.07;7.28;;;;;;;-144.47;100.00;61586.06;5032370;28;20137;-75
2022/03/01 02:21:01;;;;;;;10.25;6.90;;;;;;;-144.47;100.00;61586.06;5018293;28;20095;-75
2022/03/01 02:23:27;;;;;;;11.75;6.43;;;;;;;-144.47;100.00;61586.06;5018830;28;20029;-77
2022/03/01 02:25:53;;;;;;;8.27;6.32;;;;;;;-144.47;100.00;61586.06;5021325;28;20045;-77
2022/03/01 02:28:18;;;;;;;11.05;7.13;;;;;;;-144.47;100.00;61586.06;5024837;28;20068;-76
2022/03/01 02:30:44;;;;;;;11.57;7.18;;;;;;;-144.47;100.00;61586.06;5022022;28;20338;-76
2022/03/01 02:33:09;;;;;;;9.38;6.80;;;;;;;-144.47;100.00;61586.06;5019247;28;20057;-76
2022/03/01 02:35:35;;;;;;;8.70;6.43;;;;;;;-144.47;100.00;61586.06;5021819;28;20041;-76
2022/03/01 02:38:00;;;;;;;13.93;6.97;;;;;;;-144.47;100.00;61586.06;5019806;28;20446;-75
2022/03/01 02:40:26;;;;;;;10.00;6.88;;;;;;;-144.47;100.00;61586.06;5023083;28;20033;-75
2022/03/01 02:42:51;;;;;;;12.23;6.53;;;;;;;-144.47;100.00;61586.06;5022863;28;20069;-75
2022/03/01 02:45:18;;;;;;;11.55;6.88;;;;;;;-144.47;100.00;61586.06;5018865;28;20219;-75
2022/03/01 02:47:44;;;;;;;10.00;6.68;;;;;;;-144.47;100.00;61586.06;5021642;28;20033;-76
2022/03/01 02:50:11;;;;;;;12.43;6.70;;;;;;;-144.47;100.00;61586.06;5022109;28;20036;-75
2022/03/01 02:52:37;;;;;;;15.13;7.00;;;;;;;-144.47;100.00;61586.06;5019635;28;20450;-77
2022/03/01 02:55:04;;;;;;;11.35;6.60;;;;;;;-144.47;100.00;61586.06;5025462;28;20057;-76
2022/03/01 02:57:30;;;;;;;8.50;6.43;;;;;;;-144.47;100.00;61586.06;5024334;28;20370;-76
2022/03/01 02:59:56;;;;;;;8.82;5.97;;;;;;;-144.47;100.00;61586.06;5023548;28;20057;-76
2022/03/01 03:02:21;;;;;;;9.13;6.47;;;;;;;-144.47;100.00;61586.06;5024527;28;20478;-76
2022/03/01 03:04:47;;;;;;;7.22;6.10;;;;;;;-144.47;100.00;61586.06;5022024;28;20136;-76
2022/03/01 03:07:13;;;;;;;9.32;6.53;;;;;;;-144.47;100.00;61586.06;5025412;28;20026;-76
2022/03/01 03:09:39;;;;;;;6.72;5.57;;;;;;;-144.47;100.00;61586.06;5020585;28;20076;-75
2022/03/01 03:12:05;;;;;;;9.15;6.35;;;;;;;-144.47;100.00;61586.06;5025633;28;20514;-75
2022/03/01 03:14:31;;;;;;;8.50;6.88;;;;;;;-144.47;100.00;61586.06;5008150;28;20121;-75
2022/03/01 03:16:57;;;;;;;11.00;6.13;;;;;;;-144.47;100.00;61586.06;5037749;28;20048;-74
2022/03/01 03:19:24;;;;;;;9.30;6.20;;;;;;;-144.47;100.00;61586.06;5030831;28;20429;-76
2022/03/01 03:21:50;;;;;;;10.60;6.50;;;;;;;-144.47;100.00;61586.06;5023898;28;20099;-75
2022/03/01 03:24:16;;;;;;;10.82;6.80;;;;;;;-144.47;100.00;61586.06;5021728;28;20065;-75
2022/03/01 03:26:42;;;;;;;9.85;6.50;;;;;;;-144.47;100.00;61586.06;5024888;28;20033;-75
2022/03/01 03:29:09;;;;;;;10.70;6.00;;;;;;;-144.47;100.00;61586.06;5021701;28;20033;-74
2022/03/01 03:31:40;;;;;;;10.60;5.97;;;;;;;-144.47;100.00;61586.06;5023903;28;20494;-76
2022/03/01 03:34:08;;;;;;;10.05;6.63;;;;;;;-144.47;100.00;61586.06;5021712;28;20040;-76
2022/03/01 03:36:38;;;;;;;11.73;7.05;;;;;;;-144.47;100.00;61586.06;5023923;28;20033;-75
2022/03/01 03:39:06;;;;;;;10.27;6.45;;;;;;;-144.47;100.00;61586.06;5021927;28;20041;-75
2022/03/01 03:41:32;;;;;;;6.82;5.93;;;;;;;-144.47;100.00;61586.06;5025361;28;20087;-75
2022/03/01 03:43:59;;;;;;;9.75;6.47;;;;;;;-144.47;100.00;61586.06;5022248;28;20045;-76
2022/03/01 03:46:25;;;;;;;10.20;6.15;;;;;;;-144.47;100.00;61586.06;5022169;28;20046;-74
2022/03/01 03:48:52;;;;;;;8.48;5.88;;;;;;;-144.47;100.00;61586.06;5021937;28;20040;-75
2022/03/01 03:51:19;;;;;;;8.27;6.10;;;;;;;-144.47;100.00;61586.06;5021465;28;20109;-75
2022/03/01 03:53:46;;;;;;;8.75;6.47;;;;;;;-144.47;100.00;61586.06;5024076;28;20022;-75
2022/03/01 03:56:12;;;;;;;10.15;6.30;;;;;;;-144.47;100.00;61586.06;5020912;28;20544;-76
2022/03/01 03:58:40;;;;;;;8.82;5.90;;;;;;;-144.47;100.00;61586.06;5021315;28;20046;-76
2022/03/01 04:01:06;;;;;;;8.45;6.38;;;;;;;-144.47;100.00;61586.06;5023612;28;20030;-75
2022/03/01 04:03:32;;;;;;;9.82;6.28;;;;;;;-144.47;100.00;61586.06;5020382;28;20037;-76
2022/03/01 04:05:58;;;;;;;9.40;6.25;;;;;;;-144.47;100.00;61586.06;5021155;28;20096;-78
2022/03/01 04:08:24;;;;;;;9.77;5.47;;;;;;;-144.47;100.00;61586.06;5021874;28;20102;-75
2022/03/01 04:10:49;;;;;;;9.27;6.13;;;;;;;-144.47;100.00;61586.06;5023108;28;20034;-75
2022/03/01 04:13:15;;;;;;;9.30;6.75;;;;;;;-144.47;100.00;61586.06;5022555;28;20347;-76
2022/03/01 04:15:40;;;;;;;9.77;6.40;;;;;;;-144.47;100.00;61586.06;5024119;28;20109;-76
2022/03/01 04:18:06;;;;;;;7.25;5.78;;;;;;;-144.47;100.00;61586.06;5020845;28;20045;-77
2022/03/01 04:20:31;;;;;;;8.43;6.00;;;;;;;-144.47;100.00;61586.06;5022684;28;20037;-76
2022/03/01 04:22:57;;;;;;;9.02;5.95;;;;;;;-144.47;100.00;61586.06;5021714;28;20033;-76
2022/03/01 04:25:23;;;;;;;8.27;6.50;;;;;;;-144.47;100.00;61586.06;5020466;28;20414;-76
2022/03/01 04:27:50;;;;;;;11.25;6.55;;;;;;;-144.47;100.00;61586.06;5023783;28;20461;-76
2022/03/01 04:30:16;;;;;;;13.70;6.15;;;;;;;-144.47;100.00;61586.06;5020332;28;20033;-75
2022/03/01 04:32:42;;;;;;;8.23;5.82;;;;;;;-144.47;100.00;61586.06;5023594;28;20066;-77
2022/03/01 04:35:09;;;;;;;8.25;6.00;;;;;;;-144.47;100.00;61586.06;5018590;28;20068;-76
2022/03/01 04:37:39;;;;;;;9.88;6.35;;;;;;;-144.47;100.00;61586.06;5024644;28;20038;-76
2022/03/01 04:40:07;;;;;;;13.82;5.75;;;;;;;-144.47;100.00;61586.06;5020908;28;20477;-76
2022/03/01 04:42:33;;;;;;;9.50;6.32;;;;;;;-144.47;100.00;61586.06;5027186;28;20041;-76
2022/03/01 04:45:00;;;;;;;8.02;6.05;;;;;;;-144.47;100.00;61586.06;5021424;28;20043;-76
2022/03/01 04:47:26;;;;;;;7.38;5.28;;;;;;;-144.47;100.00;61586.06;5021179;28;20042;-76
2022/03/01 04:49:51;;;;;;;5.85;5.22;;;;;;;-144.47;100.00;61586.06;5022547;28;20369;-77
2022/03/01 04:52:17;;;;;;;7.15;5.40;;;;;;;-144.47;100.00;61586.06;5020155;28;20102;-78
2022/03/01 04:54:43;;;;;;;7.70;5.80;;;;;;;-144.47;100.00;61586.06;5021895;28;20037;-75
2022/03/01 04:57:08;;;;;;;9.32;6.15;;;;;;;-144.47;100.00;61586.06;5018656;28;20060;-76
2022/03/01 04:59:34;;;;;;;10.55;6.07;;;;;;;-144.47;100.00;61586.06;5022832;28;20040;-76
2022/03/01 05:02:00;;;;;;;7.10;4.93;;;;;;;-144.47;100.00;61586.06;5020575;28;20135;-77
2022/03/01 05:04:25;;;;;;;8.52;6.25;;;;;;;-144.47;100.00;61586.06;5021254;28;20125;-76
2022/03/01 05:06:51;;;;;;;11.65;5.60;;;;;;;-144.47;100.00;61586.06;5020587;28;20029;-77
2022/03/01 05:09:17;;;;;;;9.40;5.57;;;;;;;-144.47;100.00;61586.06;5020018;28;20034;-75
2022/03/01 05:11:43;;;;;;;6.45;5.35;;;;;;;-144.47;100.00;61586.06;5024925;28;20437;-76
2022/03/01 05:14:09;;;;;;;6.93;5.55;;;;;;;-144.47;100.00;61586.06;5019902;28;20082;-76
2022/03/01 05:16:34;;;;;;;8.60;5.20;;;;;;;-144.47;100.00;61586.06;5022132;28;20037;-76
2022/03/01 05:19:00;;;;;;;8.95;5.88;;;;;;;-144.47;100.00;61586.06;5023053;28;20431;-76
2022/03/01 05:21:26;;;;;;;7.85;6.00;;;;;;;-144.47;100.00;61586.06;5021339;28;20442;-76
2022/03/01 05:23:51;;;;;;;8.05;5.95;;;;;;;-144.47;100.00;61586.06;5020285;28;20062;-76
2022/03/01 05:26:17;;;;;;;6.50;5.57;;;;;;;-144.47;100.00;61586.06;5022664;28;20029;-76
2022/03/01 05:28:42;;;;;;;6.32;5.70;;;;;;;-144.47;100.00;61586.06;5020007;28;20466;-75
2022/03/01 05:31:08;;;;;;;7.72;5.45;;;;;;;-144.47;100.00;61586.06;5023322;28;20253;-76
2022/03/01 05:33:33;;;;;;;6.60;5.30;;;;;;;-144.47;100.00;61586.06;5021019;28;20125;-75
2022/03/01 05:35:59;;;;;;;8.52;5.13;;;;;;;-144.47;100.00;61586.06;5022599;28;20062;-76
2022/03/01 05:38:24;;;;;;;6.72;5.90;;;;;;;-144.47;100.00;61586.06;5022044;28;20026;-76
2022/03/01 05:40:50;;;;;;;6.13;5.10;;;;;;;-144.47;100.00;61586.06;5020394;28;20464;-77
2022/03/01 05:43:16;;;;;;;7.47;5.68;;;;;;;-144.47;100.00;61586.06;5023005;28;20026;-76
2022/03/01 05:45:42;;;;;;;9.32;5.65;;;;;;;-144.47;100.00;61586.06;5021556;28;20041;-78
2022/03/01 05:48:08;;;;;;;9.77;5.20;;;;;;;-144.47;100.00;61586.06;5019818;28;20065;-77
2022/03/01 05:50:33;;;;;;;7.07;5.07;;;;;;;-144.47;100.00;61586.06;5022511;28;20127;-76
2022/03/01 05:52:59;;;;;;;9.25;5.50;;;;;;;-144.47;100.00;61586.06;5024907;28;20182;-76
2022/03/01 05:55:25;;;;;;;7.88;5.43;;;;;;;-144.47;100.00;61586.06;5023783;28;20029;-76
2022/03/01 05:57:50;;;;;;;13.43;7.40;;;;;;;-144.47;100.00;61586.06;5023592;28;20110;-76
2022/03/01 06:00:18;;;;;;;5.85;5.10;;;;;;;-144.47;100.00;61586.06;5034918;28;20057;-74
2022/03/01 06:02:45;;;;;;;7.00;5.50;;;;;;;-144.47;100.00;61586.06;5040318;28;20043;-76
2022/03/01 06:05:12;;;;;;;11.95;6.05;;;;;;;-144.47;100.00;61586.06;5025049;28;20039;-75
2022/03/01 06:07:38;;;;;;;10.23;5.85;;;;;;;-144.47;100.00;61586.06;5021016;28;20089;-75
2022/03/01 06:10:04;;;;;;;6.10;5.43;;;;;;;-144.47;100.00;61586.06;5023544;28;20171;-76
2022/03/01 06:12:30;;;;;;;8.45;5.72;;;;;;;-144.47;100.00;61586.06;5027131;28;20041;-74
2022/03/01 06:14:56;;;;;;;8.88;5.90;;;;;;;-144.47;100.00;61586.06;5020454;28;20038;-73
2022/03/01 06:17:21;;;;;;;8.15;5.65;;;;;;;-144.47;100.00;61586.06;5023950;28;20022;-75
2022/03/01 06:19:47;;;;;;;8.63;5.82;;;;;;;-144.47;100.00;61586.06;5022791;28;20096;-75
2022/03/01 06:22:13;;;;;;;6.47;5.05;;;;;;;-144.47;100.00;61586.06;5028927;28;20037;-76
2022/03/01 06:24:40;;;;;;;10.48;6.18;;;;;;;-144.47;100.00;61586.06;5021760;28;20455;-75
2022/03/01 06:27:05;;;;;;;8.77;5.60;;;;;;;-144.47;100.00;61586.06;5020485;28;20544;-73
2022/03/01 06:29:31;;;;;;;7.57;5.88;;;;;;;-144.47;100.00;61586.06;5023893;28;20034;-75
2022/03/01 06:31:57;;;;;;;8.80;5.70;;;;;;;-144.47;100.00;61586.06;5024443;28;20068;-75
2022/03/01 06:34:22;;;;;;;8.35;5.88;;;;;;;-144.47;100.00;61586.06;4678454;28;10000088;-75
2022/03/01 06:36:48;;;;;;;6.47;5.57;;;;;;;-144.47;100.00;61586.06;5022781;28;20049;-74
2022/03/01 06:39:13;;;;;;;9.05;5.63;;;;;;;-144.47;100.00;61586.06;5039224;28;20091;-75
2022/03/01 06:41:39;;;;;;;10.07;6.00;;;;;;;-144.47;100.00;61586.06;5019312;28;20494;-74
2022/03/01 06:44:05;;;;;;;7.57;5.63;;;;;;;-144.47;100.00;61586.06;5022305;28;20099;-75
2022/03/01 06:46:30;;;;;;;10.32;6.10;;;;;;;-144.47;100.00;61586.06;5021456;28;20041;-75
2022/03/01 06:48:56;;;;;;;9.48;7.00;;;;;;;-144.47;100.00;61586.06;5021001;28;20037;-76
2022/03/01 06:51:21;;;;;;;11.40;7.72;;;;;;;-144.47;100.00;61586.06;5022227;28;20116;-78
2022/03/01 06:53:46;;;;;;;9.93;7.28;;;;;;;-144.47;100.00;61586.06;5032174;28;20053;-78
2022/03/01 06:56:12;;;;;;;7.70;6.10;;;;;;;-144.47;100.00;61586.06;5037925;28;20037;-76
2022/03/01 06:58:38;;;;;;;7.22;5.40;;;;;;;-144.47;100.00;61586.06;5022450;28;20461;-77
2022/03/01 07:01:04;;;;;;;10.32;7.28;;;;;;;-144.47;100.00;61586.06;4668774;28;10000079;-76
2022/03/01 07:03:29;;;;;;;7.47;5.95;;;;;;;-144.47;100.00;61586.06;5023925;28;20053;-77
2022/03/01 07:05:55;;;;;;;11.00;5.43;;;;;;;-144.47;100.00;61586.06;5024855;28;20112;-75
2022/03/01 07:08:22;;;;;;;9.00;6.13;;;;;;;-144.47;100.00;61586.06;5024709;28;20148;-77
2022/03/01 07:10:48;;;;;;;7.20;4.93;;;;;;;-144.47;100.00;61586.06;5026771;28;20029;-76
2022/03/01 07:13:14;;;;;;;8.57;5.10;;;;;;;-144.47;100.00;61586.06;5022388;28;20045;-77
2022/03/01 07:15:40;;;;;;;9.02;6.13;;;;;;;-144.47;100.00;61586.06;5021664;28;20030;-77
2022/03/01 07:18:05;;;;;;;7.28;6.03;;;;;;;-144.47;100.00;61586.06;5023712;28;20547;-77
2022/03/01 07:20:31;;;;;;;6.85;5.55;;;;;;;-144.47;100.00;61586.06;5023206;28;20037;-76
2022/03/01 07:22:57;;;;;;;6.15;5.50;;;;;;;-144.47;100.00;61586.06;5022807;28;20096;-77
2022/03/01 07:25:22;;;;;;;7.93;5.47;;;;;;;-144.47;100.00;61586.06;5023667;28;20029;-77
2022/03/01 07:27:52;;;;;;;7.57;6.13;;;;;;;-144.47;100.00;61586.06;5021499;28;20049;-76
2022/03/01 07:30:19;;;;;;;13.23;5.55;;;;;;;-144.47;100.00;61586.06;5024452;28;20025;-77
2022/03/01 07:32:46;;;;;;;11.82;6.03;;;;;;;-144.47;100.00;61586.06;5021231;28;20065;-76
2022/03/01 07:35:11;;;;;;;7.90;5.80;;;;;;;-144.47;100.00;61586.06;5024721;28;20095;-75
2022/03/01 07:37:37;;;;;;;8.77;5.45;;;;;;;-144.47;100.00;61586.06;5021591;28;20034;-78
2022/03/01 07:40:14;;;;;;;5.95;4.95;;;;;;;-144.47;100.00;61586.06;5022443;28;20561;-77
2022/03/01 07:42:41;;;;;;;9.35;5.55;;;;;;;-144.47;100.00;61586.06;5024672;28;20025;-76
2022/03/01 07:45:07;;;;;;;9.27;5.80;;;;;;;-144.47;100.00;61586.06;5021417;28;20088;-78
2022/03/01 07:47:34;;;;;;;8.15;6.07;;;;;;;-144.47;100.00;61586.06;5023490;28;20030;-77
2022/03/01 07:50:00;;;;;;;13.27;5.85;;;;;;;-144.47;100.00;61586.06;5022642;28;20686;-78
2022/03/01 07:52:26;;;;;;;6.70;5.32;;;;;;;-144.47;100.00;61586.06;5022970;28;20552;-78
2022/03/01 07:54:51;;;;;;;9.55;5.38;;;;;;;-144.47;100.00;61586.06;5023123;28;20398;-78
2022/03/01 07:57:17;;;;;;;7.35;5.70;;;;;;;-144.47;100.00;61586.06;5021287;28;20084;-77
2022/03/01 07:59:44;;;;;;;7.60;5.45;;;;;;;-144.47;100.00;61586.06;5024150;28;20041;-77
2022/03/01 08:02:09;;;;;;;7.70;6.10;;;;;;;-144.47;100.00;61586.06;5019372;28;20339;-78
2022/03/01 08:04:35;;;;;;;8.45;6.00;;;;;;;-144.47;100.00;61586.06;5020643;28;20082;-74
2022/03/01 08:07:01;;;;;;;6.90;6.20;;;;;;;-144.47;100.00;61586.06;5021302;28;20061;-74
2022/03/01 08:09:26;;;;;;;9.35;6.32;;;;;;;-144.47;100.00;61586.06;5019149;28;20547;-74
2022/03/01 08:11:52;;;;;;;7.72;5.15;;;;;;;-144.47;100.00;61586.06;5022773;28;20199;-73
2022/03/01 08:14:18;;;;;;;8.77;5.93;;;;;;;-144.47;100.00;61586.06;5020395;28;20427;-73
2022/03/01 08:16:43;;;;;;;6.90;5.43;;;;;;;-144.47;100.00;61586.06;5020655;28;20081;-72
2022/03/01 08:19:09;;;;;;;7.53;5.38;;;;;;;-144.47;100.00;61586.06;5021536;28;20093;-73
2022/03/01 08:21:34;;;;;;;7.85;6.05;;;;;;;-144.47;100.00;61586.06;5020568;28;20033;-72
2022/03/01 08:24:00;;;;;;;7.80;5.90;;;;;;;-144.47;100.00;61586.06;5019170;28;20045;-72
2022/03/01 08:26:26;;;;;;;6.65;5.97;;;;;;;-144.47;100.00;61586.06;5019774;28;20083;-73
2022/03/01 08:28:52;;;;;;;6.93;5.72;;;;;;;-144.47;100.00;61586.06;5021574;28;20094;-75
2022/03/01 08:31:18;;;;;;;7.15;5.38;;;;;;;-144.47;100.00;61586.06;5020519;28;20030;-72
2022/03/01 08:33:43;;;;;;;8.48;5.93;;;;;;;-144.47;100.00;61586.06;5019892;28;20048;-72
2022/03/01 08:36:12;;;;;;;7.30;5.72;;;;;;;-144.47;100.00;61586.06;5018949;28;20048;-74
2022/03/01 08:38:38;;;;;;;7.50;5.70;;;;;;;-144.47;100.00;61586.06;5019783;28;20424;-71
2022/03/01 08:41:03;;;;;;;8.60;5.90;;;;;;;-144.47;100.00;61586.06;5021087;28;20042;-73
2022/03/01 08:43:28;;;;;;;8.43;5.88;;;;;;;-144.47;100.00;61586.06;5019843;28;20458;-74
2022/03/01 08:45:54;;;;;;;6.68;5.30;;;;;;;-144.47;100.00;61586.06;5018230;28;20037;-72
2022/03/01 08:48:20;;;;;;;8.50;6.75;;;;;;;-144.47;100.00;61586.06;5019087;28;20026;-73
2022/03/01 08:50:46;;;;;;;9.80;5.63;;;;;;;-144.47;100.00;61586.06;5019895;28;20084;-72
2022/03/01 08:53:12;;;;;;;6.63;5.32;;;;;;;-144.47;100.00;61586.06;5020655;28;20036;-72
2022/03/01 08:55:38;;;;;;;9.65;6.45;;;;;;;-144.47;100.00;61586.06;5018685;28;20039;-73
2022/03/01 08:58:03;;;;;;;8.07;5.40;;;;;;;-144.47;100.00;61586.06;5017748;28;20037;-72
2022/03/01 09:00:29;;;;;;;5.97;5.28;;;;;;;-144.47;100.00;61586.06;5019502;28;20052;-71
2022/03/01 09:02:54;;;;;;;7.25;5.60;;;;;;;-144.47;100.00;61586.06;5017722;28;20616;-68
2022/03/01 09:05:20;;;;;;;7.47;6.32;;;;;;;-144.47;100.00;61586.06;5020731;28;20397;-71
2022/03/01 09:07:45;;;;;;;10.05;5.95;;;;;;;-144.47;100.00;61586.06;5018898;28;20037;-70
2022/03/01 09:10:11;;;;;;;8.52;6.47;;;;;;;-144.47;100.00;61586.06;5018734;28;20735;-71
2022/03/01 09:12:37;;;;;;;8.02;6.30;;;;;;;-144.47;100.00;61586.06;5022629;28;20512;-70
2022/03/01 09:15:04;;;;;;;7.72;6.40;;;;;;;-144.47;100.00;61586.06;5016476;28;20129;-71
2022/03/01 09:17:29;;;;;;;9.90;7.18;;;;;;;-144.47;100.00;61586.06;5018177;28;20033;-71
2022/03/01 09:19:55;;;;;;;6.07;5.45;;;;;;;-144.47;100.00;61586.06;5016177;28;20052;-69
2022/03/01 09:22:20;;;;;;;8.57;6.00;;;;;;;-144.47;100.00;61586.06;5021577;28;20416;-70
2022/03/01 09:24:46;;;;;;;9.93;6.10;;;;;;;-144.47;100.00;61586.06;5014516;28;20034;-71
2022/03/01 09:27:12;;;;;;;8.50;6.00;;;;;;;-144.47;100.00;61586.06;5018504;28;20025;-71
2022/03/01 09:29:37;;;;;;;9.30;6.40;;;;;;;-144.47;100.00;61586.06;5018569;28;20029;-71
2022/03/01 09:32:04;;;;;;;10.25;6.05;;;;;;;-144.47;100.00;61586.06;5020422;28;20025;-73
2022/03/01 09:34:30;;;;;;;7.00;5.47;;;;;;;-144.47;100.00;61586.06;5019322;28;20033;-70
2022/03/01 09:36:55;;;;;;;6.88;5.93;;;;;;;-144.47;100.00;61586.06;5018821;28;20170;-71
2022/03/01 09:39:21;;;;;;;8.32;5.55;;;;;;;-144.47;100.00;61586.06;5017485;28;20474;-71
2022/03/01 09:41:47;;;;;;;7.50;6.07;;;;;;;-144.47;100.00;61586.06;5020061;28;20072;-72
2022/03/01 09:44:15;;;;;;;6.60;5.95;;;;;;;-144.47;100.00;61586.06;5019828;28;20061;-70
2022/03/01 09:46:40;;;;;;;7.88;6.13;;;;;;;-144.47;100.00;61586.06;5018866;28;20061;-69
2022/03/01 09:49:06;;;;;;;10.50;5.72;;;;;;;-144.47;100.00;61586.06;5015285;28;20030;-71
2022/03/01 09:51:35;;;;;;;6.47;5.68;;;;;;;-144.47;100.00;61586.06;5019813;28;20114;-74
2022/03/01 09:54:01;;;;;;;7.85;5.95;;;;;;;-144.47;100.00;61586.06;5020111;28;20785;-73
2022/03/01 09:56:27;;;;;;;6.28;5.68;;;;;;;-144.47;100.00;61586.06;5013273;28;20048;-78
2022/03/01 09:58:52;;;;;;;6.45;5.78;;;;;;;-144.47;100.00;61586.06;5024220;28;20505;-77
2022/03/01 10:01:18;;;;;;;6.18;5.57;;;;;;;-144.47;100.00;61586.06;5021710;28;20402;-78
2022/03/01 10:03:48;;;;;;;10.25;6.22;;;;;;;-144.47;100.00;61586.06;5021213;28;20029;-77
2022/03/01 10:06:15;;;;;;;6.97;6.00;;;;;;;-144.47;100.00;61586.06;5022009;28;20041;-79
2022/03/01 10:08:41;;;;;;;8.07;5.95;;;;;;;-144.47;100.00;61586.06;5015879;28;20036;-77
2022/03/01 10:11:09;;;;;;;8.38;7.05;;;;;;;-144.47;100.00;61586.06;5023005;28;20059;-78
2022/03/01 10:13:40;;;;;;;8.25;6.00;;;;;;;-144.47;100.00;61586.06;5024897;28;20045;-74
2022/03/01 10:16:09;;;;;;;8.18;6.63;;;;;;;-144.47;100.00;61586.06;5021300;28;20041;-76
2022/03/01 10:18:37;;;;;;;13.10;6.22;;;;;;;-144.47;100.00;61586.06;5020491;28;20037;-75
2022/03/01 10:21:05;;;;;;;10.05;6.20;;;;;;;-144.47;100.00;61586.06;5020262;28;20060;-73
2022/03/01 10:23:32;;;;;;;7.75;5.70;;;;;;;-144.47;100.00;61586.06;5020128;28;20494;-73
2022/03/01 10:26:13;;;;;;;7.90;6.20;;;;;;;-144.47;100.00;61586.06;5018050;28;20053;-72
2022/03/01 10:28:39;;;;;;;;;;;;;;;-144.47;100.00;61586.06;5020611;28;20033;-72
2022/03/01 10:31:28;;;;;;;8.90;6.32;;;;;;;-144.47;100.00;61586.06;5015336;28;20290;-72
2022/03/01 10:34:02;;;;;;;7.90;6.13;;;;;;;-144.47;100.00;61586.06;5013859;28;20049;-72
2022/03/01 10:36:49;;;;;;;9.38;6.32;;;;;;;-144.47;100.00;61586.06;5016348;28;20026;-73
2022/03/01 10:39:31;;;;;;;7.68;6.13;;;;;;;-144.47;100.00;61586.06;5016694;28;20741;-72
2022/03/01 10:41:57;;;;;;;7.90;6.10;;;;;;;-144.47;100.00;61586.06;5024842;28;20801;-73
2022/03/01 10:44:30;;;;;;;10.10;6.80;;;;;;;-144.47;100.00;61586.06;5026209;28;20030;-77
2022/03/01 10:46:58;;;;;;;6.63;6.03;;;;;;;-144.47;100.00;61586.06;5018282;28;20045;-76
2022/03/01 10:49:28;;;;;;;7.65;6.13;;;;;;;-144.47;100.00;61586.06;5019484;28;20033;-75
2022/03/01 10:52:07;;;;;;;9.15;5.80;;;;;;;-144.47;100.00;61586.06;5018438;28;20084;-73
2022/03/01 10:54:33;;;;;;;7.43;6.65;;;;;;;-144.47;100.00;61586.06;5018754;28;20046;-72
2022/03/01 10:57:05;;;;;;;9.88;6.70;;;;;;;-144.47;100.00;61586.06;5016851;28;20034;-72
2022/03/01 10:59:32;;;;;;;8.32;6.00;;;;;;;-144.47;100.00;61586.06;5016380;28;20030;-73
2022/03/01 11:01:58;;;;;;;8.43;6.38;;;;;;;-144.47;100.00;61586.06;5017701;28;20037;-72